Novi Memorial Day 10k

Novi Memorial Day Run 10k Run
Age Group Results
May 28, 2012

--------------------------------------------------------------------------------
Results By Everal Race Management
--------------------------------------------------------------------------------

No age provided
Total
Place Name City Bib No Age Overall Time Pace
1 Bill McGahex Dearborn MI 6498 0 99 1:08:08 10:59/M

Male 14 to 19
Total
Place Name City Bib No Age Overall Time Pace
1 Sean McCullough Northville MI 3364 15 4 38:52 6:16/M
2 Paul Baratta Novi MI 941 19 11 44:05 7:07/M
3 Dan Lee Novi MI 3346 17 36 50:40 8:10/M

Female 20 to 24
Total
Place Name City Bib No Age Overall Time Pace
1 Brandy Grutter Mount Clemens MI 970 24 58 56:34 9:07/M
2 Rose Keller Dearborn MI 981 24 64 58:05 9:22/M
3 Kaylie McLeay Canton MI 994 23 86 1:04:49 10:27/M
4 Shannon Serrico Dearborn Heights M 625 24 117 1:14:30 12:01/M

Male 25 to 29
Total
Place Name City Bib No Age Overall Time Pace
1 Todd Connor South Lyon MI 6495 27 6 39:10 6:19/M
2 Brent Martin Novi MI 992 29 19 47:51 7:43/M
3 Ross McMackin Novi MI 995 29 33 50:21 8:07/M
4 Adam Whitney Ann Arbor MI 1487 26 35 50:38 8:10/M
5 Tom Cotant Clawson MI 955 28 68 59:43 9:38/M
6 Scott Marinski Canton MI 991 27 72 1:00:28 9:45/M
7 Mark Mau Madison Heights MI 993 26 88 1:05:32 10:34/M

Female 25 to 29
Total
Place Name City Bib No Age Overall Time Pace
1 Angela Mathews Westland MI 3350 27 2 37:45 6:05/M
2 Alyssa Modrell Ann Arbor MI 233 25 22 48:36 7:50/M
3 Meghan Leonard Tempe AZ 234 26 25 48:56 7:54/M
4 Kristen Wheeler Troy MI 1476 29 48 54:12 8:45/M
5 Tyacie Corle Ann Arbor MI 6473 28 61 57:32 9:17/M
6 Katy Haldiman Farmington MI 3160 28 71 1:00:16 9:43/M
7 Carmen McPhail Rochester Hills MI 997 29 93 1:06:19 10:42/M
8 Tobey Roos Rochester Hills MI 6459 27 95 1:06:51 10:47/M
9 Kelly Cates Westland MI 3184 27 98 1:07:49 10:56/M
10 Jennifer MacDonald Novi MI 989 25 102 1:09:33 11:13/M
11 Teren McMackin Novi MI 996 29 105 1:10:43 11:24/M
12 Sarah Blitz Sterling Heights M 948 27 107 1:11:26 11:31/M

Male 30 to 34
Total
Place Name City Bib No Age Overall Time Pace
1 Ryan Johns White Lake MI 978 33 1 37:14 6:00/M
2 Nick Gow Chicago IL 968 32 5 39:04 6:18/M
3 Tyler Boger Walled Lake MI 949 34 37 51:05 8:14/M
4 Masaki Yoshida Novi MI 2446 33 65 58:06 9:22/M
5 Jason Roos Rochester Hills MI 6458 30 111 1:13:23 11:50/M

Female 30 to 34
Total
Place Name City Bib No Age Overall Time Pace
1 Rachel Ingle Plymouth MI 976 32 15 45:50 7:24/M
2 Lisa Ferguson Plymouth MI 964 30 51 55:13 8:54/M
3 Kummbareh Owens Southfield MI 6463 30 67 59:00 9:31/M
4 Roseneide Quintino Novi MI 6468 34 69 59:44 9:38/M
5 Michelle Tessmer Novi MI 238 34 78 1:02:54 10:09/M
6 Amy Bartalucci Canton MI 942 34 113 1:13:55 11:55/M
7 Jayne Cerano White Lake MI 952 33 121 1:16:50 12:24/M
8 Michelle Monday Livonia MI 6420 34 125 1:27:24 14:06/M
9 Shannon Wilson Royal Oak MI 2436 32 127 1:35:40 15:26/M
10 Erica Thomas Pontiac MI 708 33 128 1:42:48 16:35/M

Male 35 to 39
Total
Place Name City Bib No Age Overall Time Pace
1 Matthew Nyquist Northville MI 6447 37 14 45:06 7:16/M
2 Damion Taylor Northville MI 672 38 17 47:00 7:35/M
3 Ivan Padilla Farmington Hills M 6464 39 24 48:40 7:51/M
4 Scott Miller South Lyon MI 1000 38 30 50:06 8:05/M
5 Shotaro Seki Novi MI 620 38 34 50:26 8:08/M
6 Keith Kaulsky Roseville MI 3126 38 43 52:51 8:31/M
7 James Cross Royal Oak MI 3189 35 47 54:08 8:44/M
8 John Maxworthy Plymouth MI 227 39 60 56:54 9:11/M
9 Madhu Mahadevan Northville MI 990 36 62 57:37 9:18/M
10 Robert Cassady Flint MI 219 36 73 1:00:43 9:48/M
11 Sean Loiselle Novi MI 988 36 74 1:00:50 9:49/M
12 Aaron Arndt Royal Oak MI 938 36 80 1:03:08 10:11/M
13 Edwynn Bell Livonia MI 3987 39 82 1:03:23 10:13/M

Female 35 to 39
Total
Place Name City Bib No Age Overall Time Pace
1 Josie Taylor Northville MI 679 37 53 56:03 9:02/M
2 Margareta Kelleher Novi MI 980 39 54 56:31 9:07/M
3 Dawn Kwiatkowski White Lake MI 984 38 83 1:03:30 10:15/M
4 Jennifer Javor Plymouth MI 977 35 87 1:05:19 10:32/M
5 Michele Mikonczyk Dearborn Heights M 3366 39 90 1:05:49 10:37/M
6 Jennifer Behnke Novi MI 945 37 92 1:06:02 10:39/M
7 Jodi Panter West Bloomfield MI 6465 35 109 1:12:33 11:42/M
8 Amanda Ellis Novi MI 963 38 112 1:13:30 11:51/M
9 Anne Steffen Farmington MI 655 36 114 1:13:56 11:55/M
10 Jean Herron Novi MI 3345 35 116 1:14:15 11:59/M

Male 40 to 44
Total
Place Name City Bib No Age Overall Time Pace
1 Chris Woodring Canton MI 6485 44 3 38:03 6:08/M
2 Jeff Degroot Northville MI 3983 41 9 41:55 6:46/M
3 Shuji Fujii Novi MI 6489 44 10 42:39 6:53/M
4 Steve Piejak Rochster Hills MI 6466 43 23 48:36 7:50/M
5 John Mikonczyk Dearborn MI 6490 44 96 1:06:52 10:47/M

Female 40 to 44
Total
Place Name City Bib No Age Overall Time Pace
1 Kimberly Bedigian Novi MI 944 42 26 49:14 7:56/M
2 Tracy Licari Farmington Hills M 986 40 31 50:12 8:06/M
3 Lisa Zulcosky Northville MI 2452 43 85 1:04:05 10:20/M
4 Liz Marshall Plymouth MI 6477 40 106 1:10:58 11:27/M

Male 45 to 49
Total
Place Name City Bib No Age Overall Time Pace
1 Mike Mansfield Northville MI 6483 45 12 44:19 7:09/M
2 Ken Schuldt Wixom MI 6461 49 20 47:53 7:43/M
3 Pusheng Chen Novi MI 953 49 38 51:12 8:15/M
4 Jean-Paul Guiboux Novi MI 971 45 40 51:38 8:20/M
5 Thomas Kehn Ann Arbor MI 979 46 41 51:40 8:20/M
6 Kenji Utsumi Novi MI 1473 45 42 52:36 8:29/M
7 Peter McCullough Northville MI 3355 49 45 53:11 8:35/M
8 Andrew Cirinesi Inkster Road MI 954 48 46 53:14 8:35/M
9 Eric Dobrusin Bloomfield Hills M 961 48 49 54:27 8:47/M
10 Mark Hommel Commerce Twp. MI 975 49 52 55:43 8:59/M
11 Michael Simonte Novi MI 632 48 56 56:32 9:07/M
12 David McWilliams Commerce Twp MI 998 45 59 56:39 9:08/M
13 Jim Zittel Waterford MI 6492 49 63 57:49 9:20/M
14 Radhakrishnan Mariappaswamy Novi MI 6475 46 76 1:02:02 10:00/M
15 Paul Moody Novi MI 6421 48 79 1:03:04 10:10/M
16 John Zulcosky Northville MI 2447 45 84 1:03:59 10:19/M
17 Sriram Vaidyanathan Novi MI 3428 45 91 1:05:50 10:37/M
18 Pete Turek Novi MI 6488 48 108 1:12:19 11:40/M

Female 45 to 49
Total
Place Name City Bib No Age Overall Time Pace
1 Patricia Schmidt Suttons Bay MI 3419 45 28 49:22 7:58/M
2 Hiromi Utsumi Novi MI 1472 47 32 50:13 8:06/M
3 Celeste Tremel Livonia MI 925 49 75 1:00:52 9:49/M
4 Jacquelyn Giusti South Lyon MI 965 45 101 1:09:29 11:12/M
5 Cheryl Rozen Redford MI 6460 48 115 1:13:59 11:56/M
6 Marcia Polselli Bloomfield Hills M 6467 47 120 1:16:03 12:16/M
7 Beth Dumas Franklin MI 962 48 123 1:17:57 12:34/M
8 Cariana Robinson Redford MI 6469 45 129 1:55:03 18:33/M

Male 50 to 54
Total
Place Name City Bib No Age Overall Time Pace
1 David Soltow Dewitt MI 637 50 8 41:15 6:39/M
2 Rich Bean Plymouth MI 6479 50 13 44:39 7:12/M
3 Roine Andersson Southfield MI 3179 53 16 46:12 7:27/M
4 Steve St.james Royal Oak MI 638 52 18 47:35 7:40/M
5 William Oppat Novi MI 6448 50 29 49:43 8:01/M
6 Dan Goering Northville MI 966 50 44 53:10 8:35/M
7 Glen Goldman New Hudson MI 967 52 57 56:33 9:07/M
8 Gordon Micallef Plymouth MI 999 51 97 1:07:48 10:56/M

Female 50 to 54
Total
Place Name City Bib No Age Overall Time Pace
1 Dana Williams Commerce Township 6487 51 70 1:00:01 9:41/M
2 Cheryl Bean Plymouth MI 6480 50 77 1:02:12 10:02/M
3 Cindy Derosa Novi MI 959 53 100 1:09:06 11:09/M
4 Linda Barabash Grass Lake MI 939 54 103 1:10:12 11:19/M
5 Susan Campbell Novi MI 950 50 122 1:17:38 12:31/M
6 Kathleen Blanco Redford MI 947 50 130 1:55:05 18:34/M

Male 55 to 59
Total
Place Name City Bib No Age Overall Time Pace
1 John Tarkowski Northville MI 677 59 7 40:43 6:34/M
2 Michael Patterson Grosse Pointe Woods 3406 59 21 48:22 7:48/M
3 Robert Stein West Bloomfield MI 3984 59 27 49:16 7:57/M
4 Robin Pearce New Hudson MI 6484 58 55 56:32 9:07/M
5 Willie Robinson Southfield MI 230 55 66 58:31 9:26/M
6 Timothy Hall Novi MI 973 59 81 1:03:17 10:12/M
7 James Stevenson Northville MI 658 55 94 1:06:39 10:45/M
8 Michael Barabash Grass Lake MI 940 56 104 1:10:12 11:19/M
9 David Myers Plymouth MI 6446 55 124 1:19:38 12:51/M
10 Tyrone Werts Farmington MI 6486 55 126 1:32:17 14:53/M

Female 55 to 59
Total
Place Name City Bib No Age Overall Time Pace
1 Kathleen Clark Fraser MI 232 55 50 54:34 8:48/M
2 Elaine Slomsky Livonia MI 6497 57 119 1:15:07 12:07/M

Male 60 to 64
Total
Place Name City Bib No Age Overall Time Pace
1 Mark Squires Novi MI 225 61 39 51:15 8:16/M
2 Jeffrey Debandt Troy MI 957 64 89 1:05:46 10:36/M

Male 65 & up
Total
Place Name City Bib No Age Overall Time Pace
1 Clifford Daugherty Waterford MI 956 69 118 1:14:37 12:02/M

Female 65 & up
Total
Place Name City Bib No Age Overall Time Pace
1 Janet Delucia Livonia MI 958 70 110 1:12:52 11:45/M


--------------------------------------------------------------------------------


Copyright © Everal Race Management Contact Greg Everal Email: everalracemanagement@comcast.net Phone: 734.507.1789